sensor_id;sensor_type;location;lat;lon;timestamp;P1;durP1;ratioP1;P2;durP2;ratioP2
18196;SDS011;9224;52.422;13.024;2022-09-09T00:01:49;5.53;;;4.90;;
18196;SDS011;9224;52.422;13.024;2022-09-09T00:04:21;5.25;;;4.85;;
18196;SDS011;9224;52.422;13.024;2022-09-09T00:06:55;5.33;;;4.90;;
18196;SDS011;9224;52.422;13.024;2022-09-09T00:09:27;5.63;;;5.13;;
18196;SDS011;9224;52.422;13.024;2022-09-09T00:11:56;5.93;;;5.32;;
18196;SDS011;9224;52.422;13.024;2022-09-09T00:14:31;5.30;;;4.90;;
18196;SDS011;9224;52.422;13.024;2022-09-09T00:17:04;8.00;;;4.85;;
18196;SDS011;9224;52.422;13.024;2022-09-09T00:19:37;5.60;;;5.10;;
18196;SDS011;9224;52.422;13.024;2022-09-09T00:22:12;6.97;;;5.20;;
18196;SDS011;9224;52.422;13.024;2022-09-09T00:24:42;5.47;;;4.97;;
18196;SDS011;9224;52.422;13.024;2022-09-09T00:27:11;5.97;;;4.67;;
18196;SDS011;9224;52.422;13.024;2022-09-09T00:29:43;5.20;;;4.80;;
18196;SDS011;9224;52.422;13.024;2022-09-09T00:32:14;5.50;;;5.00;;
18196;SDS011;9224;52.422;13.024;2022-09-09T00:34:47;5.88;;;4.75;;
18196;SDS011;9224;52.422;13.024;2022-09-09T00:37:14;5.78;;;4.68;;
18196;SDS011;9224;52.422;13.024;2022-09-09T00:39:41;5.40;;;4.90;;
18196;SDS011;9224;52.422;13.024;2022-09-09T00:42:12;5.20;;;4.80;;
18196;SDS011;9224;52.422;13.024;2022-09-09T00:44:44;5.30;;;4.88;;
18196;SDS011;9224;52.422;13.024;2022-09-09T00:47:33;5.45;;;4.97;;
18196;SDS011;9224;52.422;13.024;2022-09-09T00:50:10;5.47;;;5.07;;
18196;SDS011;9224;52.422;13.024;2022-09-09T00:52:44;8.83;;;5.27;;
18196;SDS011;9224;52.422;13.024;2022-09-09T00:55:14;5.47;;;5.00;;
18196;SDS011;9224;52.422;13.024;2022-09-09T00:57:43;5.77;;;4.80;;
18196;SDS011;9224;52.422;13.024;2022-09-09T01:00:19;5.60;;;5.10;;
18196;SDS011;9224;52.422;13.024;2022-09-09T01:02:52;6.68;;;6.07;;
18196;SDS011;9224;52.422;13.024;2022-09-09T01:05:26;7.40;;;6.80;;
18196;SDS011;9224;52.422;13.024;2022-09-09T01:07:55;6.90;;;6.40;;
18196;SDS011;9224;52.422;13.024;2022-09-09T01:10:25;7.28;;;6.60;;
18196;SDS011;9224;52.422;13.024;2022-09-09T01:12:57;7.00;;;6.40;;
18196;SDS011;9224;52.422;13.024;2022-09-09T01:15:26;7.32;;;6.65;;
18196;SDS011;9224;52.422;13.024;2022-09-09T01:17:56;7.57;;;6.97;;
18196;SDS011;9224;52.422;13.024;2022-09-09T01:20:25;7.40;;;6.90;;
18196;SDS011;9224;52.422;13.024;2022-09-09T01:23:07;7.35;;;6.85;;
18196;SDS011;9224;52.422;13.024;2022-09-09T01:28:35;7.57;;;6.97;;
18196;SDS011;9224;52.422;13.024;2022-09-09T01:31:02;7.50;;;6.88;;
18196;SDS011;9224;52.422;13.024;2022-09-09T01:33:29;8.10;;;7.30;;
18196;SDS011;9224;52.422;13.024;2022-09-09T01:35:57;7.57;;;6.95;;
18196;SDS011;9224;52.422;13.024;2022-09-09T01:38:27;7.83;;;7.23;;
18196;SDS011;9224;52.422;13.024;2022-09-09T01:40:54;8.57;;;7.68;;
18196;SDS011;9224;52.422;13.024;2022-09-09T01:43:22;8.18;;;7.38;;
18196;SDS011;9224;52.422;13.024;2022-09-09T01:45:49;7.68;;;7.10;;
18196;SDS011;9224;52.422;13.024;2022-09-09T01:48:19;8.20;;;7.50;;
18196;SDS011;9224;52.422;13.024;2022-09-09T01:50:46;8.30;;;7.50;;
18196;SDS011;9224;52.422;13.024;2022-09-09T01:53:12;7.75;;;7.15;;
18196;SDS011;9224;52.422;13.024;2022-09-09T01:55:41;8.02;;;7.32;;
18196;SDS011;9224;52.422;13.024;2022-09-09T01:58:16;7.82;;;7.13;;
18196;SDS011;9224;52.422;13.024;2022-09-09T02:00:51;7.57;;;6.97;;
18196;SDS011;9224;52.422;13.024;2022-09-09T02:03:25;8.15;;;7.45;;
18196;SDS011;9224;52.422;13.024;2022-09-09T02:05:55;8.65;;;7.75;;
18196;SDS011;9224;52.422;13.024;2022-09-09T02:08:27;8.10;;;7.43;;
18196;SDS011;9224;52.422;13.024;2022-09-09T02:10:56;8.20;;;7.50;;
18196;SDS011;9224;52.422;13.024;2022-09-09T02:13:27;7.90;;;7.20;;
18196;SDS011;9224;52.422;13.024;2022-09-09T02:15:56;8.00;;;7.20;;
18196;SDS011;9224;52.422;13.024;2022-09-09T02:18:26;7.80;;;7.10;;
18196;SDS011;9224;52.422;13.024;2022-09-09T02:20:54;7.57;;;6.85;;
18196;SDS011;9224;52.422;13.024;2022-09-09T02:23:21;8.07;;;7.27;;
18196;SDS011;9224;52.422;13.024;2022-09-09T02:25:48;7.97;;;7.07;;
18196;SDS011;9224;52.422;13.024;2022-09-09T02:28:17;8.35;;;7.20;;
18196;SDS011;9224;52.422;13.024;2022-09-09T02:30:46;7.90;;;7.25;;
18196;SDS011;9224;52.422;13.024;2022-09-09T02:33:16;8.20;;;7.60;;
18196;SDS011;9224;52.422;13.024;2022-09-09T02:35:42;7.90;;;7.30;;
18196;SDS011;9224;52.422;13.024;2022-09-09T02:38:10;8.38;;;7.60;;
18196;SDS011;9224;52.422;13.024;2022-09-09T02:40:38;8.05;;;7.43;;
18196;SDS011;9224;52.422;13.024;2022-09-09T02:43:05;8.48;;;7.68;;
18196;SDS011;9224;52.422;13.024;2022-09-09T02:45:31;8.25;;;7.55;;
18196;SDS011;9224;52.422;13.024;2022-09-09T02:48:05;8.30;;;7.60;;
18196;SDS011;9224;52.422;13.024;2022-09-09T02:50:38;8.45;;;7.68;;
18196;SDS011;9224;52.422;13.024;2022-09-09T02:53:09;8.32;;;7.60;;
18196;SDS011;9224;52.422;13.024;2022-09-09T02:55:59;8.65;;;7.85;;
18196;SDS011;9224;52.422;13.024;2022-09-09T02:58:48;8.02;;;7.22;;
18196;SDS011;9224;52.422;13.024;2022-09-09T03:01:35;8.30;;;7.60;;
18196;SDS011;9224;52.422;13.024;2022-09-09T03:04:21;8.57;;;7.78;;
18196;SDS011;9224;52.422;13.024;2022-09-09T03:07:08;8.63;;;7.82;;
18196;SDS011;9224;52.422;13.024;2022-09-09T03:09:54;9.13;;;8.32;;
18196;SDS011;9224;52.422;13.024;2022-09-09T03:12:39;8.50;;;7.70;;
18196;SDS011;9224;52.422;13.024;2022-09-09T03:15:06;8.55;;;7.70;;
18196;SDS011;9224;52.422;13.024;2022-09-09T03:17:33;8.20;;;7.50;;
18196;SDS011;9224;52.422;13.024;2022-09-09T03:20:02;8.43;;;7.75;;
18196;SDS011;9224;52.422;13.024;2022-09-09T03:22:28;8.20;;;7.47;;
18196;SDS011;9224;52.422;13.024;2022-09-09T03:24:55;8.32;;;7.53;;
18196;SDS011;9224;52.422;13.024;2022-09-09T03:27:21;8.38;;;7.57;;
18196;SDS011;9224;52.422;13.024;2022-09-09T03:29:48;8.38;;;7.63;;
18196;SDS011;9224;52.422;13.024;2022-09-09T03:32:16;8.60;;;7.80;;
18196;SDS011;9224;52.422;13.024;2022-09-09T03:34:42;7.60;;;7.00;;
18196;SDS011;9224;52.422;13.024;2022-09-09T03:37:10;9.53;;;7.20;;
18196;SDS011;9224;52.422;13.024;2022-09-09T03:39:36;7.90;;;7.20;;
18196;SDS011;9224;52.422;13.024;2022-09-09T03:42:03;7.80;;;7.10;;
18196;SDS011;9224;52.422;13.024;2022-09-09T03:44:30;9.67;;;7.30;;
18196;SDS011;9224;52.422;13.024;2022-09-09T03:46:57;9.40;;;7.20;;
18196;SDS011;9224;52.422;13.024;2022-09-09T03:49:25;7.22;;;6.63;;
18196;SDS011;9224;52.422;13.024;2022-09-09T03:51:53;7.50;;;6.80;;
18196;SDS011;9224;52.422;13.024;2022-09-09T03:54:22;7.47;;;6.88;;
18196;SDS011;9224;52.422;13.024;2022-09-09T03:56:49;7.70;;;6.95;;
18196;SDS011;9224;52.422;13.024;2022-09-09T03:59:15;7.30;;;6.70;;
18196;SDS011;9224;52.422;13.024;2022-09-09T04:01:42;7.38;;;6.68;;
18196;SDS011;9224;52.422;13.024;2022-09-09T04:04:08;7.47;;;6.70;;
18196;SDS011;9224;52.422;13.024;2022-09-09T04:06:35;7.90;;;7.20;;
18196;SDS011;9224;52.422;13.024;2022-09-09T04:09:01;7.18;;;6.57;;
18196;SDS011;9224;52.422;13.024;2022-09-09T04:11:29;7.20;;;6.60;;
18196;SDS011;9224;52.422;13.024;2022-09-09T04:13:56;7.57;;;6.53;;
18196;SDS011;9224;52.422;13.024;2022-09-09T04:16:22;7.70;;;6.32;;
18196;SDS011;9224;52.422;13.024;2022-09-09T04:18:49;6.57;;;5.97;;
18196;SDS011;9224;52.422;13.024;2022-09-09T04:21:15;6.53;;;5.82;;
18196;SDS011;9224;52.422;13.024;2022-09-09T04:23:42;7.00;;;6.40;;
18196;SDS011;9224;52.422;13.024;2022-09-09T04:26:08;7.18;;;6.50;;
18196;SDS011;9224;52.422;13.024;2022-09-09T04:28:36;6.50;;;5.90;;
18196;SDS011;9224;52.422;13.024;2022-09-09T04:31:03;6.68;;;6.07;;
18196;SDS011;9224;52.422;13.024;2022-09-09T04:33:31;6.95;;;6.35;;
18196;SDS011;9224;52.422;13.024;2022-09-09T04:35:57;6.80;;;6.20;;
18196;SDS011;9224;52.422;13.024;2022-09-09T04:38:24;6.63;;;6.03;;
18196;SDS011;9224;52.422;13.024;2022-09-09T04:40:51;7.00;;;6.40;;
18196;SDS011;9224;52.422;13.024;2022-09-09T04:43:19;6.88;;;6.38;;
18196;SDS011;9224;52.422;13.024;2022-09-09T04:45:48;6.78;;;6.10;;
18196;SDS011;9224;52.422;13.024;2022-09-09T04:48:16;6.80;;;6.13;;
18196;SDS011;9224;52.422;13.024;2022-09-09T04:50:42;7.28;;;5.68;;
18196;SDS011;9224;52.422;13.024;2022-09-09T04:53:09;6.38;;;5.72;;
18196;SDS011;9224;52.422;13.024;2022-09-09T04:55:35;7.25;;;5.78;;
18196;SDS011;9224;52.422;13.024;2022-09-09T04:58:03;5.65;;;5.25;;
18196;SDS011;9224;52.422;13.024;2022-09-09T05:00:30;6.45;;;5.75;;
18196;SDS011;9224;52.422;13.024;2022-09-09T05:02:57;6.07;;;5.47;;
18196;SDS011;9224;52.422;13.024;2022-09-09T05:05:24;5.88;;;5.30;;
18196;SDS011;9224;52.422;13.024;2022-09-09T05:07:51;6.68;;;5.75;;
18196;SDS011;9224;52.422;13.024;2022-09-09T05:10:18;6.38;;;5.63;;
18196;SDS011;9224;52.422;13.024;2022-09-09T05:12:51;6.93;;;5.80;;
18196;SDS011;9224;52.422;13.024;2022-09-09T05:15:18;6.07;;;5.47;;
18196;SDS011;9224;52.422;13.024;2022-09-09T05:17:45;6.15;;;5.40;;
18196;SDS011;9224;52.422;13.024;2022-09-09T05:20:13;6.72;;;5.40;;
18196;SDS011;9224;52.422;13.024;2022-09-09T05:22:40;5.72;;;5.22;;
18196;SDS011;9224;52.422;13.024;2022-09-09T05:25:07;7.65;;;5.30;;
18196;SDS011;9224;52.422;13.024;2022-09-09T05:27:34;5.60;;;5.10;;
18196;SDS011;9224;52.422;13.024;2022-09-09T05:30:01;6.05;;;5.47;;
18196;SDS011;9224;52.422;13.024;2022-09-09T05:32:29;5.90;;;5.40;;
18196;SDS011;9224;52.422;13.024;2022-09-09T05:34:59;5.70;;;5.25;;
18196;SDS011;9224;52.422;13.024;2022-09-09T05:37:28;6.18;;;5.68;;
18196;SDS011;9224;52.422;13.024;2022-09-09T05:39:55;5.82;;;5.32;;
18196;SDS011;9224;52.422;13.024;2022-09-09T05:42:21;5.95;;;5.32;;
18196;SDS011;9224;52.422;13.024;2022-09-09T05:44:48;6.13;;;5.53;;
18196;SDS011;9224;52.422;13.024;2022-09-09T05:47:15;6.05;;;5.47;;
18196;SDS011;9224;52.422;13.024;2022-09-09T05:49:42;6.15;;;5.50;;
18196;SDS011;9224;52.422;13.024;2022-09-09T05:52:08;6.03;;;5.53;;
18196;SDS011;9224;52.422;13.024;2022-09-09T05:54:36;6.10;;;5.60;;
18196;SDS011;9224;52.422;13.024;2022-09-09T05:57:03;5.87;;;5.30;;
18196;SDS011;9224;52.422;13.024;2022-09-09T05:59:30;5.38;;;4.97;;
18196;SDS011;9224;52.422;13.024;2022-09-09T06:01:57;5.30;;;4.80;;
18196;SDS011;9224;52.422;13.024;2022-09-09T06:04:24;7.28;;;5.63;;
18196;SDS011;9224;52.422;13.024;2022-09-09T06:06:50;5.72;;;5.13;;
18196;SDS011;9224;52.422;13.024;2022-09-09T06:09:16;6.47;;;5.30;;
18196;SDS011;9224;52.422;13.024;2022-09-09T06:11:44;5.87;;;5.00;;
18196;SDS011;9224;52.422;13.024;2022-09-09T06:14:11;5.20;;;4.63;;
18196;SDS011;9224;52.422;13.024;2022-09-09T06:16:38;5.63;;;4.80;;
18196;SDS011;9224;52.422;13.024;2022-09-09T06:19:04;4.85;;;4.40;;
18196;SDS011;9224;52.422;13.024;2022-09-09T06:21:32;5.82;;;5.07;;
18196;SDS011;9224;52.422;13.024;2022-09-09T06:24:00;5.10;;;4.40;;
18196;SDS011;9224;52.422;13.024;2022-09-09T06:26:28;5.07;;;4.60;;
18196;SDS011;9224;52.422;13.024;2022-09-09T06:28:57;6.15;;;4.60;;
18196;SDS011;9224;52.422;13.024;2022-09-09T06:31:24;5.30;;;4.80;;
18196;SDS011;9224;52.422;13.024;2022-09-09T06:33:52;7.07;;;4.97;;
18196;SDS011;9224;52.422;13.024;2022-09-09T06:36:21;5.55;;;4.40;;
18196;SDS011;9224;52.422;13.024;2022-09-09T06:38:48;5.00;;;4.50;;
18196;SDS011;9224;52.422;13.024;2022-09-09T06:41:15;6.47;;;4.00;;
18196;SDS011;9224;52.422;13.024;2022-09-09T06:43:43;4.47;;;4.00;;
18196;SDS011;9224;52.422;13.024;2022-09-09T06:46:12;5.40;;;4.07;;
18196;SDS011;9224;52.422;13.024;2022-09-09T06:48:40;4.97;;;3.92;;
18196;SDS011;9224;52.422;13.024;2022-09-09T06:51:08;3.77;;;3.40;;
18196;SDS011;9224;52.422;13.024;2022-09-09T06:53:49;3.97;;;3.47;;
18196;SDS011;9224;52.422;13.024;2022-09-09T06:56:25;6.25;;;3.60;;
18196;SDS011;9224;52.422;13.024;2022-09-09T06:58:54;5.07;;;3.50;;
18196;SDS011;9224;52.422;13.024;2022-09-09T07:01:23;4.32;;;3.15;;
18196;SDS011;9224;52.422;13.024;2022-09-09T07:03:50;3.45;;;3.15;;
18196;SDS011;9224;52.422;13.024;2022-09-09T07:06:18;3.97;;;3.38;;
18196;SDS011;9224;52.422;13.024;2022-09-09T07:08:49;4.75;;;3.00;;
18196;SDS011;9224;52.422;13.024;2022-09-09T07:11:17;5.32;;;3.30;;
18196;SDS011;9224;52.422;13.024;2022-09-09T07:13:44;3.90;;;3.47;;
18196;SDS011;9224;52.422;13.024;2022-09-09T07:16:11;6.03;;;3.20;;
18196;SDS011;9224;52.422;13.024;2022-09-09T07:18:40;4.30;;;3.15;;
18196;SDS011;9224;52.422;13.024;2022-09-09T07:21:07;4.45;;;3.13;;
18196;SDS011;9224;52.422;13.024;2022-09-09T07:23:35;4.10;;;3.30;;
18196;SDS011;9224;52.422;13.024;2022-09-09T07:26:02;3.55;;;3.25;;
18196;SDS011;9224;52.422;13.024;2022-09-09T07:28:29;4.53;;;3.40;;
18196;SDS011;9224;52.422;13.024;2022-09-09T07:30:56;5.10;;;3.70;;
18196;SDS011;9224;52.422;13.024;2022-09-09T07:33:23;4.95;;;3.70;;
18196;SDS011;9224;52.422;13.024;2022-09-09T07:35:52;3.78;;;3.33;;
18196;SDS011;9224;52.422;13.024;2022-09-09T07:38:18;4.15;;;3.10;;
18196;SDS011;9224;52.422;13.024;2022-09-09T07:40:45;3.95;;;3.05;;
18196;SDS011;9224;52.422;13.024;2022-09-09T07:43:11;4.80;;;3.30;;
18196;SDS011;9224;52.422;13.024;2022-09-09T07:45:38;4.25;;;3.20;;
18196;SDS011;9224;52.422;13.024;2022-09-09T07:48:05;3.57;;;3.20;;
18196;SDS011;9224;52.422;13.024;2022-09-09T07:50:32;3.42;;;3.13;;
18196;SDS011;9224;52.422;13.024;2022-09-09T07:52:59;5.88;;;3.33;;
18196;SDS011;9224;52.422;13.024;2022-09-09T07:55:27;3.47;;;3.10;;
18196;SDS011;9224;52.422;13.024;2022-09-09T07:57:54;3.65;;;3.17;;
18196;SDS011;9224;52.422;13.024;2022-09-09T08:00:21;4.40;;;3.10;;
18196;SDS011;9224;52.422;13.024;2022-09-09T08:02:49;4.43;;;3.08;;
18196;SDS011;9224;52.422;13.024;2022-09-09T08:05:15;3.78;;;3.03;;
18196;SDS011;9224;52.422;13.024;2022-09-09T08:07:42;4.50;;;3.17;;
18196;SDS011;9224;52.422;13.024;2022-09-09T08:10:10;4.13;;;2.88;;
18196;SDS011;9224;52.422;13.024;2022-09-09T08:12:39;3.15;;;2.75;;
18196;SDS011;9224;52.422;13.024;2022-09-09T08:15:06;3.72;;;2.83;;
18196;SDS011;9224;52.422;13.024;2022-09-09T08:17:33;3.33;;;2.80;;
18196;SDS011;9224;52.422;13.024;2022-09-09T08:19:59;2.97;;;2.67;;
18196;SDS011;9224;52.422;13.024;2022-09-09T08:22:30;4.75;;;2.67;;
18196;SDS011;9224;52.422;13.024;2022-09-09T08:24:56;4.93;;;2.75;;
18196;SDS011;9224;52.422;13.024;2022-09-09T08:27:24;3.67;;;2.80;;
18196;SDS011;9224;52.422;13.024;2022-09-09T08:29:50;4.88;;;2.70;;
18196;SDS011;9224;52.422;13.024;2022-09-09T08:32:18;3.10;;;2.60;;
18196;SDS011;9224;52.422;13.024;2022-09-09T08:34:45;3.20;;;2.77;;
18196;SDS011;9224;52.422;13.024;2022-09-09T08:37:11;3.58;;;2.60;;
18196;SDS011;9224;52.422;13.024;2022-09-09T08:39:38;6.35;;;3.13;;
18196;SDS011;9224;52.422;13.024;2022-09-09T08:42:08;4.80;;;2.95;;
18196;SDS011;9224;52.422;13.024;2022-09-09T08:44:54;4.53;;;2.78;;
18196;SDS011;9224;52.422;13.024;2022-09-09T08:47:39;4.45;;;2.97;;
18196;SDS011;9224;52.422;13.024;2022-09-09T08:50:13;3.53;;;2.50;;
18196;SDS011;9224;52.422;13.024;2022-09-09T08:52:49;3.90;;;2.58;;
18196;SDS011;9224;52.422;13.024;2022-09-09T08:55:26;5.53;;;2.70;;
18196;SDS011;9224;52.422;13.024;2022-09-09T08:57:56;3.97;;;2.60;;
18196;SDS011;9224;52.422;13.024;2022-09-09T09:00:29;3.25;;;2.50;;
18196;SDS011;9224;52.422;13.024;2022-09-09T09:03:03;2.90;;;2.30;;
18196;SDS011;9224;52.422;13.024;2022-09-09T09:05:35;5.47;;;3.85;;
18196;SDS011;9224;52.422;13.024;2022-09-09T09:08:05;16.63;;;9.90;;
18196;SDS011;9224;52.422;13.024;2022-09-09T09:10:43;7.78;;;4.97;;
18196;SDS011;9224;52.422;13.024;2022-09-09T09:13:13;3.10;;;2.57;;
18196;SDS011;9224;52.422;13.024;2022-09-09T09:15:43;8.38;;;4.68;;
18196;SDS011;9224;52.422;13.024;2022-09-09T09:18:10;4.75;;;2.80;;
18196;SDS011;9224;52.422;13.024;2022-09-09T09:20:40;7.43;;;4.63;;
18196;SDS011;9224;52.422;13.024;2022-09-09T09:23:12;5.60;;;3.83;;
18196;SDS011;9224;52.422;13.024;2022-09-09T09:25:43;5.03;;;2.50;;
18196;SDS011;9224;52.422;13.024;2022-09-09T09:28:10;3.67;;;2.53;;
18196;SDS011;9224;52.422;13.024;2022-09-09T09:30:44;3.70;;;2.90;;
18196;SDS011;9224;52.422;13.024;2022-09-09T09:33:15;4.45;;;2.72;;
18196;SDS011;9224;52.422;13.024;2022-09-09T09:35:45;3.70;;;2.85;;
18196;SDS011;9224;52.422;13.024;2022-09-09T09:38:13;4.30;;;2.50;;
18196;SDS011;9224;52.422;13.024;2022-09-09T09:40:48;4.97;;;2.20;;
18196;SDS011;9224;52.422;13.024;2022-09-09T09:43:18;4.30;;;2.10;;
18196;SDS011;9224;52.422;13.024;2022-09-09T09:45:47;4.70;;;2.20;;
18196;SDS011;9224;52.422;13.024;2022-09-09T09:48:14;5.27;;;2.40;;
18196;SDS011;9224;52.422;13.024;2022-09-09T09:50:46;4.47;;;2.63;;
18196;SDS011;9224;52.422;13.024;2022-09-09T09:53:17;4.00;;;2.10;;
18196;SDS011;9224;52.422;13.024;2022-09-09T09:55:47;4.88;;;2.30;;
18196;SDS011;9224;52.422;13.024;2022-09-09T09:58:16;4.47;;;2.10;;
18196;SDS011;9224;52.422;13.024;2022-09-09T10:00:48;3.40;;;1.87;;
18196;SDS011;9224;52.422;13.024;2022-09-09T10:03:20;2.38;;;1.85;;
18196;SDS011;9224;52.422;13.024;2022-09-09T10:05:48;3.88;;;2.13;;
18196;SDS011;9224;52.422;13.024;2022-09-09T10:08:16;4.97;;;2.25;;
18196;SDS011;9224;52.422;13.024;2022-09-09T10:10:47;3.40;;;1.88;;
18196;SDS011;9224;52.422;13.024;2022-09-09T10:13:31;3.40;;;1.90;;
18196;SDS011;9224;52.422;13.024;2022-09-09T10:16:08;5.18;;;2.17;;
18196;SDS011;9224;52.422;13.024;2022-09-09T10:18:50;2.95;;;1.92;;
18196;SDS011;9224;52.422;13.024;2022-09-09T10:21:28;4.20;;;2.10;;
18196;SDS011;9224;52.422;13.024;2022-09-09T10:24:04;4.15;;;1.95;;
18196;SDS011;9224;52.422;13.024;2022-09-09T10:26:39;3.10;;;1.63;;
18196;SDS011;9224;52.422;13.024;2022-09-09T10:29:23;2.37;;;1.50;;
18196;SDS011;9224;52.422;13.024;2022-09-09T10:31:58;2.35;;;1.67;;
18196;SDS011;9224;52.422;13.024;2022-09-09T10:34:37;3.30;;;1.92;;
18196;SDS011;9224;52.422;13.024;2022-09-09T10:37:17;2.90;;;1.90;;
18196;SDS011;9224;52.422;13.024;2022-09-09T10:39:55;2.25;;;2.03;;
18196;SDS011;9224;52.422;13.024;2022-09-09T10:42:29;2.58;;;1.90;;
18196;SDS011;9224;52.422;13.024;2022-09-09T10:45:00;4.47;;;2.28;;
18196;SDS011;9224;52.422;13.024;2022-09-09T10:47:37;2.37;;;1.70;;
18196;SDS011;9224;52.422;13.024;2022-09-09T10:50:14;3.10;;;1.83;;
18196;SDS011;9224;52.422;13.024;2022-09-09T10:52:51;3.13;;;1.77;;
18196;SDS011;9224;52.422;13.024;2022-09-09T10:55:25;2.58;;;1.88;;
18196;SDS011;9224;52.422;13.024;2022-09-09T10:57:55;3.28;;;1.75;;
18196;SDS011;9224;52.422;13.024;2022-09-09T11:00:24;3.28;;;1.83;;
18196;SDS011;9224;52.422;13.024;2022-09-09T11:02:55;2.77;;;1.70;;
18196;SDS011;9224;52.422;13.024;2022-09-09T11:05:24;2.88;;;1.63;;
18196;SDS011;9224;52.422;13.024;2022-09-09T11:07:54;2.85;;;1.85;;
18196;SDS011;9224;52.422;13.024;2022-09-09T11:10:23;4.07;;;1.90;;
18196;SDS011;9224;52.422;13.024;2022-09-09T11:12:53;2.28;;;1.83;;
18196;SDS011;9224;52.422;13.024;2022-09-09T11:15:23;3.10;;;1.52;;
18196;SDS011;9224;52.422;13.024;2022-09-09T11:17:56;4.23;;;1.80;;
18196;SDS011;9224;52.422;13.024;2022-09-09T11:20:25;3.22;;;1.75;;
18196;SDS011;9224;52.422;13.024;2022-09-09T11:22:53;3.53;;;1.63;;
18196;SDS011;9224;52.422;13.024;2022-09-09T11:25:23;3.22;;;2.00;;
18196;SDS011;9224;52.422;13.024;2022-09-09T11:27:59;4.13;;;2.07;;
18196;SDS011;9224;52.422;13.024;2022-09-09T11:30:33;4.15;;;2.00;;
18196;SDS011;9224;52.422;13.024;2022-09-09T11:33:28;2.95;;;1.60;;
18196;SDS011;9224;52.422;13.024;2022-09-09T11:36:04;3.53;;;1.87;;
18196;SDS011;9224;52.422;13.024;2022-09-09T11:38:40;3.63;;;1.83;;
18196;SDS011;9224;52.422;13.024;2022-09-09T11:41:11;2.30;;;1.65;;
18196;SDS011;9224;52.422;13.024;2022-09-09T11:43:39;3.15;;;1.73;;
18196;SDS011;9224;52.422;13.024;2022-09-09T11:46:06;3.33;;;1.92;;
18196;SDS011;9224;52.422;13.024;2022-09-09T11:48:36;3.92;;;1.88;;
18196;SDS011;9224;52.422;13.024;2022-09-09T11:51:05;3.10;;;1.90;;
18196;SDS011;9224;52.422;13.024;2022-09-09T11:53:33;3.75;;;1.95;;
18196;SDS011;9224;52.422;13.024;2022-09-09T11:56:01;3.15;;;1.60;;
18196;SDS011;9224;52.422;13.024;2022-09-09T11:58:34;3.88;;;1.77;;
18196;SDS011;9224;52.422;13.024;2022-09-09T12:01:12;2.70;;;1.58;;
18196;SDS011;9224;52.422;13.024;2022-09-09T12:03:54;3.37;;;1.70;;
18196;SDS011;9224;52.422;13.024;2022-09-09T12:06:28;2.17;;;1.38;;
18196;SDS011;9224;52.422;13.024;2022-09-09T12:08:57;2.00;;;1.63;;
18196;SDS011;9224;52.422;13.024;2022-09-09T12:11:25;3.67;;;1.70;;
18196;SDS011;9224;52.422;13.024;2022-09-09T12:13:53;2.67;;;1.40;;
18196;SDS011;9224;52.422;13.024;2022-09-09T12:16:27;3.45;;;1.63;;
18196;SDS011;9224;52.422;13.024;2022-09-09T12:19:03;4.27;;;1.83;;
18196;SDS011;9224;52.422;13.024;2022-09-09T12:21:34;3.10;;;1.40;;
18196;SDS011;9224;52.422;13.024;2022-09-09T12:24:04;2.67;;;1.55;;
18196;SDS011;9224;52.422;13.024;2022-09-09T12:26:34;3.50;;;1.50;;
18196;SDS011;9224;52.422;13.024;2022-09-09T12:29:06;3.63;;;1.70;;
18196;SDS011;9224;52.422;13.024;2022-09-09T12:31:40;3.70;;;1.73;;
18196;SDS011;9224;52.422;13.024;2022-09-09T12:34:13;3.55;;;1.42;;
18196;SDS011;9224;52.422;13.024;2022-09-09T12:36:41;3.20;;;1.70;;
18196;SDS011;9224;52.422;13.024;2022-09-09T12:39:10;2.50;;;1.40;;
18196;SDS011;9224;52.422;13.024;2022-09-09T12:41:50;2.85;;;1.50;;
18196;SDS011;9224;52.422;13.024;2022-09-09T12:44:21;2.75;;;1.38;;
18196;SDS011;9224;52.422;13.024;2022-09-09T12:46:49;3.60;;;1.70;;
18196;SDS011;9224;52.422;13.024;2022-09-09T12:49:25;2.87;;;1.40;;
18196;SDS011;9224;52.422;13.024;2022-09-09T12:51:56;2.97;;;1.55;;
18196;SDS011;9224;52.422;13.024;2022-09-09T12:54:23;3.63;;;1.70;;
18196;SDS011;9224;52.422;13.024;2022-09-09T12:56:50;4.37;;;2.00;;
18196;SDS011;9224;52.422;13.024;2022-09-09T12:59:21;2.83;;;1.67;;
18196;SDS011;9224;52.422;13.024;2022-09-09T13:01:54;3.08;;;1.80;;
18196;SDS011;9224;52.422;13.024;2022-09-09T13:04:22;4.05;;;1.95;;
18196;SDS011;9224;52.422;13.024;2022-09-09T13:06:49;3.10;;;1.80;;
18196;SDS011;9224;52.422;13.024;2022-09-09T13:09:17;3.70;;;2.00;;
18196;SDS011;9224;52.422;13.024;2022-09-09T13:11:45;6.35;;;3.80;;
18196;SDS011;9224;52.422;13.024;2022-09-09T13:14:13;6.18;;;3.58;;
18196;SDS011;9224;52.422;13.024;2022-09-09T13:16:53;3.55;;;1.90;;
18196;SDS011;9224;52.422;13.024;2022-09-09T13:19:21;5.93;;;3.20;;
18196;SDS011;9224;52.422;13.024;2022-09-09T13:21:52;5.43;;;2.95;;
18196;SDS011;9224;52.422;13.024;2022-09-09T13:24:24;4.78;;;3.10;;
18196;SDS011;9224;52.422;13.024;2022-09-09T13:26:54;6.35;;;3.00;;
18196;SDS011;9224;52.422;13.024;2022-09-09T13:29:22;5.07;;;2.38;;
18196;SDS011;9224;52.422;13.024;2022-09-09T13:31:48;3.28;;;2.20;;
18196;SDS011;9224;52.422;13.024;2022-09-09T13:34:28;3.53;;;2.00;;
18196;SDS011;9224;52.422;13.024;2022-09-09T13:36:58;3.55;;;1.88;;
18196;SDS011;9224;52.422;13.024;2022-09-09T13:39:26;4.65;;;2.40;;
18196;SDS011;9224;52.422;13.024;2022-09-09T13:41:53;2.78;;;1.85;;
18196;SDS011;9224;52.422;13.024;2022-09-09T13:44:20;3.88;;;2.20;;
18196;SDS011;9224;52.422;13.024;2022-09-09T13:46:58;4.50;;;1.80;;
18196;SDS011;9224;52.422;13.024;2022-09-09T13:49:27;4.33;;;2.60;;
18196;SDS011;9224;52.422;13.024;2022-09-09T13:52:03;4.00;;;2.17;;
18196;SDS011;9224;52.422;13.024;2022-09-09T13:54:32;3.10;;;1.67;;
18196;SDS011;9224;52.422;13.024;2022-09-09T13:57:00;2.50;;;1.70;;
18196;SDS011;9224;52.422;13.024;2022-09-09T13:59:27;2.05;;;1.45;;
18196;SDS011;9224;52.422;13.024;2022-09-09T14:01:54;2.65;;;1.63;;
18196;SDS011;9224;52.422;13.024;2022-09-09T14:04:20;2.72;;;1.95;;
18196;SDS011;9224;52.422;13.024;2022-09-09T14:06:47;2.90;;;1.57;;
18196;SDS011;9224;52.422;13.024;2022-09-09T14:09:15;2.55;;;1.40;;
18196;SDS011;9224;52.422;13.024;2022-09-09T14:11:43;2.47;;;1.52;;
18196;SDS011;9224;52.422;13.024;2022-09-09T14:14:10;2.03;;;1.38;;
18196;SDS011;9224;52.422;13.024;2022-09-09T14:16:36;1.75;;;1.50;;
18196;SDS011;9224;52.422;13.024;2022-09-09T14:19:03;2.07;;;1.73;;
18196;SDS011;9224;52.422;13.024;2022-09-09T14:21:29;2.00;;;1.17;;
18196;SDS011;9224;52.422;13.024;2022-09-09T14:23:56;2.35;;;1.63;;
18196;SDS011;9224;52.422;13.024;2022-09-09T14:26:25;2.17;;;1.60;;
18196;SDS011;9224;52.422;13.024;2022-09-09T14:28:51;2.45;;;1.50;;
18196;SDS011;9224;52.422;13.024;2022-09-09T14:31:18;3.10;;;1.50;;
18196;SDS011;9224;52.422;13.024;2022-09-09T14:33:44;2.20;;;1.30;;
18196;SDS011;9224;52.422;13.024;2022-09-09T14:36:11;2.13;;;1.27;;
18196;SDS011;9224;52.422;13.024;2022-09-09T14:38:39;2.95;;;1.60;;
18196;SDS011;9224;52.422;13.024;2022-09-09T14:41:07;2.80;;;1.70;;
18196;SDS011;9224;52.422;13.024;2022-09-09T14:43:36;2.38;;;1.63;;
18196;SDS011;9224;52.422;13.024;2022-09-09T14:46:06;1.95;;;1.25;;
18196;SDS011;9224;52.422;13.024;2022-09-09T14:48:34;3.55;;;1.70;;
18196;SDS011;9224;52.422;13.024;2022-09-09T14:51:04;2.95;;;1.42;;
18196;SDS011;9224;52.422;13.024;2022-09-09T14:53:32;2.28;;;1.58;;
18196;SDS011;9224;52.422;13.024;2022-09-09T14:56:02;2.75;;;1.40;;
18196;SDS011;9224;52.422;13.024;2022-09-09T14:58:30;3.23;;;1.47;;
18196;SDS011;9224;52.422;13.024;2022-09-09T15:01:02;3.40;;;1.60;;
18196;SDS011;9224;52.422;13.024;2022-09-09T15:03:30;2.22;;;1.35;;
18196;SDS011;9224;52.422;13.024;2022-09-09T15:05:56;3.58;;;1.83;;
18196;SDS011;9224;52.422;13.024;2022-09-09T15:08:23;2.38;;;1.58;;